createdAt,value
2019-04-16T00:00:23.274Z,16.90
2019-04-16T00:02:54.580Z,15.45
2019-04-16T00:05:27.738Z,17.77
2019-04-16T00:08:00.860Z,16.87
2019-04-16T00:10:52.155Z,17.25
2019-04-16T00:13:27.629Z,18.55
2019-04-16T00:15:57.860Z,18.35
2019-04-16T00:18:26.143Z,16.30
2019-04-16T00:21:16.317Z,17.30
2019-04-16T00:24:18.585Z,20.20
2019-04-16T00:26:58.057Z,21.07
2019-04-16T00:29:23.521Z,17.55
2019-04-16T00:32:09.789Z,17.67
2019-04-16T00:34:39.112Z,21.60
2019-04-16T00:37:06.862Z,17.62
2019-04-16T00:39:34.537Z,18.00
2019-04-16T00:42:02.365Z,16.62
2019-04-16T00:44:30.133Z,17.77
2019-04-16T00:46:59.477Z,18.57
2019-04-16T00:49:27.274Z,16.70
2019-04-16T00:51:55.082Z,16.32
2019-04-16T00:54:22.790Z,15.60
2019-04-16T00:56:50.461Z,16.23
2019-04-16T00:59:18.236Z,15.48
2019-04-16T01:01:46.009Z,18.67
2019-04-16T01:04:13.737Z,18.00
2019-04-16T01:06:41.501Z,18.10
2019-04-16T01:09:09.256Z,19.73
2019-04-16T01:11:37.029Z,18.12
2019-04-16T01:14:04.938Z,21.90
2019-04-16T01:16:32.913Z,19.45
2019-04-16T01:19:01.389Z,19.20
2019-04-16T01:21:29.017Z,18.40
2019-04-16T01:23:56.646Z,20.70
2019-04-16T01:26:26.764Z,20.25
2019-04-16T01:29:02.770Z,21.25
2019-04-16T01:31:47.798Z,19.07
2019-04-16T01:34:42.665Z,18.17
2019-04-16T01:37:25.603Z,19.62
2019-04-16T01:39:54.233Z,18.05
2019-04-16T01:42:24.208Z,21.07
2019-04-16T01:44:52.238Z,20.08
2019-04-16T01:47:19.919Z,17.25
2019-04-16T01:49:47.697Z,19.07
2019-04-16T01:52:18.700Z,22.07
2019-04-16T01:54:45.035Z,19.42
2019-04-16T01:57:12.718Z,21.65
2019-04-16T01:59:40.518Z,20.65
2019-04-16T02:02:08.213Z,17.95
2019-04-16T02:04:36.192Z,18.05
2019-04-16T02:07:03.957Z,17.67
2019-04-16T02:09:34.832Z,19.20
2019-04-16T02:12:01.531Z,18.73
2019-04-16T02:14:29.771Z,17.67
2019-04-16T02:16:57.359Z,18.48
2019-04-16T02:19:25.105Z,18.25
2019-04-16T02:21:52.797Z,19.07
2019-04-16T02:24:20.554Z,18.55
2019-04-16T02:26:48.237Z,20.85
2019-04-16T02:29:15.997Z,19.45
2019-04-16T02:31:43.693Z,25.80
2019-04-16T02:34:11.505Z,20.12
2019-04-16T02:36:39.191Z,21.33
2019-04-16T02:39:08.179Z,20.62
2019-04-16T02:41:35.876Z,20.08
2019-04-16T02:44:03.892Z,19.30
2019-04-16T02:46:32.737Z,18.40
2019-04-16T02:49:00.759Z,19.02
2019-04-16T02:52:03.082Z,24.00
2019-04-16T02:54:46.001Z,20.17
2019-04-16T02:57:41.053Z,25.52
2019-04-16T03:00:33.556Z,20.62
2019-04-16T03:03:08.145Z,22.62
2019-04-16T03:05:40.289Z,18.37
2019-04-16T03:08:10.193Z,19.50
2019-04-16T03:10:38.074Z,21.20
2019-04-16T03:13:05.923Z,21.15
2019-04-16T03:15:59.301Z,24.02
2019-04-16T03:18:36.686Z,18.70
2019-04-16T03:21:06.054Z,20.10
2019-04-16T03:23:36.683Z,21.55
2019-04-16T03:26:03.286Z,21.23
2019-04-16T03:28:31.068Z,18.85
2019-04-16T03:30:58.819Z,21.75
2019-04-16T03:33:26.696Z,18.27
2019-04-16T03:35:57.590Z,19.40
2019-04-16T03:38:24.008Z,20.08
2019-04-16T03:40:55.867Z,21.52
2019-04-16T03:43:21.579Z,21.52
2019-04-16T03:45:49.393Z,22.95
2019-04-16T03:48:17.077Z,22.90
2019-04-16T03:50:44.865Z,20.20
2019-04-16T03:53:16.383Z,24.00
2019-04-16T03:55:42.143Z,20.37
2019-04-16T03:58:09.894Z,20.08
2019-04-16T04:00:37.573Z,22.35
2019-04-16T04:03:05.369Z,22.98
2019-04-16T04:05:34.892Z,21.85
2019-04-16T04:08:02.862Z,26.87
2019-04-16T04:10:34.273Z,22.98
2019-04-16T04:13:00.704Z,22.17
2019-04-16T04:15:28.398Z,25.25
2019-04-16T04:17:56.138Z,24.45
2019-04-16T04:20:23.816Z,25.82
2019-04-16T04:22:51.558Z,22.27
2019-04-16T04:25:19.221Z,22.62
2019-04-16T04:27:47.746Z,22.65
2019-04-16T04:30:17.232Z,22.65
2019-04-16T04:32:47.705Z,27.32
2019-04-16T04:35:20.194Z,23.27
2019-04-16T04:37:45.354Z,22.95
2019-04-16T04:40:16.129Z,24.67
2019-04-16T04:42:42.766Z,21.52
2019-04-16T04:45:10.674Z,21.48
2019-04-16T04:47:38.567Z,23.95
2019-04-16T04:50:06.694Z,23.67
2019-04-16T04:52:34.813Z,21.30
2019-04-16T04:55:02.629Z,23.42
2019-04-16T04:57:31.878Z,26.40
2019-04-16T04:59:59.790Z,24.63
2019-04-16T05:02:27.555Z,30.70
2019-04-16T05:05:00.845Z,25.20
2019-04-16T05:07:30.153Z,24.50
2019-04-16T05:09:57.917Z,23.65
2019-04-16T05:12:25.590Z,23.67
2019-04-16T05:14:57.547Z,25.17
2019-04-16T05:17:26.007Z,27.73
2019-04-16T05:19:55.378Z,29.72
2019-04-16T05:22:23.113Z,26.33
2019-04-16T05:24:51.038Z,28.87
2019-04-16T05:27:18.826Z,29.07
2019-04-16T05:29:48.919Z,28.23
2019-04-16T05:32:16.120Z,25.27
2019-04-16T05:34:43.761Z,23.10
2019-04-16T05:37:11.453Z,29.05
2019-04-16T05:39:39.196Z,25.23
2019-04-16T05:42:06.884Z,26.20
2019-04-16T05:44:34.728Z,25.70
2019-04-16T05:47:02.500Z,29.98
2019-04-16T05:49:30.244Z,31.50
2019-04-16T05:52:02.909Z,29.98
2019-04-16T05:54:52.801Z,26.70
2019-04-16T05:57:27.729Z,25.85
2019-04-16T05:59:57.169Z,30.92
2019-04-16T06:02:34.506Z,26.50
2019-04-16T06:05:04.693Z,29.80
2019-04-16T06:07:32.517Z,32.50
2019-04-16T06:10:00.739Z,28.35
2019-04-16T06:12:40.056Z,28.20
2019-04-16T06:15:24.489Z,27.70
2019-04-16T06:18:21.958Z,32.95
2019-04-16T06:21:04.340Z,30.35
2019-04-16T06:23:51.408Z,33.10
2019-04-16T06:26:37.874Z,28.60
2019-04-16T06:29:17.254Z,26.57
2019-04-16T06:32:03.327Z,30.80
2019-04-16T06:34:59.860Z,31.12
2019-04-16T06:37:57.830Z,47.73
2019-04-16T06:40:49.676Z,29.98
2019-04-16T06:43:26.200Z,31.73
2019-04-16T06:46:28.931Z,29.60
2019-04-16T06:49:17.656Z,32.20
2019-04-16T06:52:25.634Z,27.22
2019-04-16T06:55:13.803Z,37.93
2019-04-16T06:58:05.963Z,34.60
2019-04-16T07:01:08.357Z,31.82
2019-04-16T07:04:15.775Z,28.73
2019-04-16T07:07:14.035Z,29.50
2019-04-16T07:09:49.185Z,26.15
2019-04-16T07:12:23.512Z,25.55
2019-04-16T07:14:51.295Z,28.50
2019-04-16T07:17:19.068Z,25.88
2019-04-16T07:19:46.729Z,29.77
2019-04-16T07:22:14.452Z,27.95
2019-04-16T07:24:42.440Z,26.02
2019-04-16T07:28:01.538Z,30.15
2019-04-16T07:30:48.960Z,26.57
2019-04-16T07:33:36.750Z,26.25
2019-04-16T07:36:27.184Z,27.73
2019-04-16T07:39:13.197Z,29.95
2019-04-16T07:43:47.020Z,26.55
2019-04-16T07:44:48.077Z,30.48
2019-04-16T07:47:35.230Z,28.80
2019-04-16T07:50:18.650Z,26.93
2019-04-16T07:53:14.391Z,31.57
2019-04-16T07:55:53.265Z,26.80
2019-04-16T07:58:22.621Z,25.43
2019-04-16T08:00:50.490Z,26.00
2019-04-16T08:03:18.202Z,26.60
2019-04-16T08:05:46.034Z,27.17
2019-04-16T08:08:13.899Z,23.32
2019-04-16T08:10:41.681Z,22.73
2019-04-16T08:13:18.127Z,22.52
2019-04-16T08:15:46.299Z,22.90
2019-04-16T08:18:14.710Z,24.63
2019-04-16T08:20:42.766Z,22.37
2019-04-16T08:23:52.898Z,29.52
2019-04-16T08:26:20.665Z,24.27
2019-04-16T08:28:48.542Z,25.32
2019-04-16T08:31:22.934Z,24.12
2019-04-16T08:33:52.197Z,23.92
2019-04-16T08:36:19.846Z,30.37
2019-04-16T08:38:47.548Z,34.85
2019-04-16T08:41:19.697Z,26.42
2019-04-16T08:43:44.877Z,29.35
2019-04-16T08:46:12.716Z,31.90
2019-04-16T08:48:40.421Z,24.55
2019-04-16T08:51:08.287Z,24.50
2019-04-16T08:53:36.109Z,25.00
2019-04-16T08:56:03.993Z,24.23
2019-04-16T08:58:31.711Z,26.77
2019-04-16T09:00:59.525Z,25.00
2019-04-16T09:03:30.064Z,24.35
2019-04-16T09:05:57.207Z,25.23
2019-04-16T09:08:33.128Z,25.35
2019-04-16T09:11:03.351Z,25.12
2019-04-16T09:13:35.713Z,26.40
2019-04-16T09:16:05.528Z,25.02
2019-04-16T09:18:51.566Z,25.75
2019-04-16T09:21:20.942Z,28.42
2019-04-16T09:24:09.338Z,24.37
2019-04-16T09:26:43.925Z,24.25
2019-04-16T09:29:39.157Z,22.73
2019-04-16T09:32:32.977Z,22.70
2019-04-16T09:35:18.367Z,25.02
2019-04-16T09:38:13.081Z,24.27
2019-04-16T09:41:00.613Z,23.15
2019-04-16T09:43:30.249Z,28.00
2019-04-16T09:46:10.256Z,23.50
2019-04-16T09:48:34.352Z,26.95
2019-04-16T09:50:59.030Z,24.20
2019-04-16T09:53:33.396Z,24.60
2019-04-16T09:55:58.145Z,23.75
2019-04-16T09:58:27.588Z,25.20
2019-04-16T10:01:04.158Z,23.75
2019-04-16T10:03:35.674Z,21.73
2019-04-16T10:06:05.737Z,22.87
2019-04-16T10:08:33.827Z,24.07
2019-04-16T10:11:05.801Z,21.77
2019-04-16T10:13:35.731Z,22.90
2019-04-16T10:16:01.047Z,26.68
2019-04-16T10:18:28.945Z,25.75
2019-04-16T10:20:56.659Z,25.70
2019-04-16T10:23:42.843Z,28.20
2019-04-16T10:26:12.181Z,23.07
2019-04-16T10:28:40.355Z,24.63
2019-04-16T10:31:11.061Z,22.10
2019-04-16T10:33:40.413Z,23.42
2019-04-16T10:36:08.112Z,23.57
2019-04-16T10:38:42.124Z,25.00
2019-04-16T10:41:31.014Z,23.20
2019-04-16T10:44:15.137Z,21.65
2019-04-16T10:47:03.980Z,45.28
2019-04-16T10:49:45.181Z,23.65
2019-04-16T10:52:32.855Z,22.60
2019-04-16T10:55:24.840Z,22.90
2019-04-16T10:58:13.749Z,23.18
2019-04-16T11:01:17.708Z,28.45
2019-04-16T11:04:07.842Z,22.90
2019-04-16T11:06:41.013Z,23.80
2019-04-16T11:09:10.724Z,25.60
2019-04-16T11:11:38.740Z,22.95
2019-04-16T11:14:06.724Z,23.98
2019-04-16T11:16:36.062Z,22.35
2019-04-16T11:19:05.463Z,24.27
2019-04-16T11:21:33.320Z,23.80
2019-04-16T11:24:01.366Z,28.00
2019-04-16T11:26:29.649Z,23.27
2019-04-16T11:28:57.563Z,25.15
2019-04-16T11:31:25.949Z,24.10
2019-04-16T11:33:53.809Z,27.95
2019-04-16T11:36:24.490Z,24.30
2019-04-16T11:38:52.361Z,21.35
2019-04-16T11:41:20.259Z,23.85
2019-04-16T11:43:48.052Z,21.42
2019-04-16T11:46:16.102Z,23.47
2019-04-16T11:48:47.339Z,21.62
2019-04-16T11:51:16.063Z,22.50
2019-04-16T11:53:44.006Z,24.92
2019-04-16T11:56:12.053Z,20.62
2019-04-16T11:58:44.142Z,19.80
2019-04-16T12:01:36.352Z,19.30
2019-04-16T12:04:25.273Z,21.60
2019-04-16T12:07:13.089Z,21.20
2019-04-16T12:10:17.306Z,20.15
2019-04-16T12:13:06.260Z,19.80
2019-04-16T12:16:05.067Z,19.95
2019-04-16T12:18:47.146Z,18.87
2019-04-16T12:21:34.905Z,20.80
2019-04-16T12:24:32.793Z,19.95
2019-04-16T12:27:24.785Z,22.95
2019-04-16T12:30:31.824Z,19.90
2019-04-16T12:33:09.001Z,19.32
2019-04-16T12:35:51.213Z,15.98
2019-04-16T12:38:33.866Z,18.27
2019-04-16T12:41:21.137Z,18.82
2019-04-16T12:43:56.399Z,23.38
2019-04-16T12:46:51.238Z,19.65
2019-04-16T12:49:44.801Z,17.17
2019-04-16T12:52:48.779Z,17.87
2019-04-16T12:55:40.242Z,21.80
2019-04-16T12:58:25.722Z,17.32
2019-04-16T13:01:33.189Z,18.05
2019-04-16T13:04:07.022Z,19.55
2019-04-16T13:07:11.362Z,19.32
2019-04-16T13:10:03.116Z,16.75
2019-04-16T13:12:39.542Z,17.25
2019-04-16T13:15:25.443Z,18.40
2019-04-16T13:18:29.674Z,20.05
2019-04-16T13:21:18.485Z,18.42
2019-04-16T13:24:00.743Z,17.20
2019-04-16T13:26:33.077Z,23.20
2019-04-16T13:29:06.460Z,20.80
2019-04-16T13:31:36.385Z,19.15
2019-04-16T13:34:05.398Z,17.65
2019-04-16T13:36:33.126Z,19.07
2019-04-16T13:39:15.288Z,18.85
2019-04-16T13:41:44.609Z,18.20
2019-04-16T13:44:16.933Z,16.90
2019-04-16T13:46:44.626Z,16.62
2019-04-16T13:49:31.401Z,18.55
2019-04-16T13:51:57.661Z,22.70
2019-04-16T13:54:35.138Z,20.05
2019-04-16T13:57:11.318Z,18.32
2019-04-16T14:00:04.423Z,19.35
2019-04-16T14:02:36.390Z,19.12
2019-04-16T14:05:09.909Z,20.82
2019-04-16T14:07:36.174Z,22.13
2019-04-16T14:10:04.364Z,21.30
2019-04-16T14:12:41.659Z,21.97
2019-04-16T14:15:05.786Z,23.32
2019-04-16T14:17:36.528Z,20.25
2019-04-16T14:20:04.727Z,20.95
2019-04-16T14:22:34.121Z,20.68
2019-04-16T14:25:01.933Z,22.05
2019-04-16T14:27:31.312Z,19.07
2019-04-16T14:29:59.904Z,18.25
2019-04-16T14:32:28.989Z,20.23
2019-04-16T14:35:01.917Z,18.90
2019-04-16T14:37:31.302Z,17.75
2019-04-16T14:40:13.129Z,20.77
2019-04-16T14:42:42.432Z,19.20
2019-04-16T14:45:49.755Z,20.05
2019-04-16T14:48:08.897Z,18.07
2019-04-16T14:50:35.102Z,18.90
2019-04-16T14:53:02.955Z,19.62
2019-04-16T14:55:59.862Z,16.77
2019-04-16T14:58:41.073Z,16.32
2019-04-16T15:01:28.465Z,17.20
2019-04-16T15:04:20.183Z,16.52
2019-04-16T15:07:14.851Z,20.43
2019-04-16T15:10:03.677Z,19.30
2019-04-16T15:12:43.485Z,18.67
2019-04-16T15:15:30.671Z,17.23
2019-04-16T15:18:05.191Z,19.98
2019-04-16T15:21:02.773Z,18.12
2019-04-16T15:24:01.290Z,17.98
2019-04-16T15:26:52.316Z,17.00
2019-04-16T15:29:29.979Z,16.32
2019-04-16T15:32:28.225Z,16.97
2019-04-16T15:34:57.606Z,18.82
2019-04-16T15:37:57.921Z,17.37
2019-04-16T15:40:31.331Z,17.42
2019-04-16T15:43:26.263Z,17.87
2019-04-16T15:46:28.501Z,18.25
2019-04-16T15:49:06.250Z,18.27
2019-04-16T15:51:50.867Z,17.95
2019-04-16T15:54:36.986Z,17.73
2019-04-16T15:57:24.704Z,17.80
2019-04-16T16:00:00.796Z,15.15
2019-04-16T16:02:53.075Z,15.45
2019-04-16T16:05:26.852Z,16.93
2019-04-16T16:08:21.732Z,15.00
2019-04-16T16:10:54.219Z,15.80
2019-04-16T16:13:26.492Z,15.23
2019-04-16T16:15:53.426Z,15.18
2019-04-16T16:18:21.283Z,14.65
2019-04-16T16:20:49.615Z,16.73
2019-04-16T16:23:17.460Z,14.28
2019-04-16T16:25:45.333Z,15.63
2019-04-16T16:28:13.199Z,17.27
2019-04-16T16:30:41.053Z,18.17
2019-04-16T16:33:08.870Z,16.50
2019-04-16T16:35:36.681Z,16.55
2019-04-16T16:38:04.617Z,15.72
2019-04-16T16:40:32.371Z,15.90
2019-04-16T16:43:00.088Z,16.37
2019-04-16T16:45:59.854Z,15.32
2019-04-16T16:48:29.249Z,13.78
2019-04-16T16:50:57.288Z,14.10
2019-04-16T16:53:41.480Z,14.33
2019-04-16T16:56:21.125Z,14.50
2019-04-16T16:58:57.673Z,14.03
2019-04-16T17:01:58.988Z,13.95
2019-04-16T17:04:31.391Z,14.90
2019-04-16T17:07:00.957Z,14.25
2019-04-16T17:09:31.189Z,15.58
2019-04-16T17:11:59.814Z,14.47
2019-04-16T17:14:27.797Z,15.32
2019-04-16T17:16:55.575Z,13.08
2019-04-16T17:19:23.539Z,13.90
2019-04-16T17:21:51.262Z,13.45
2019-04-16T17:24:19.048Z,14.95
2019-04-16T17:26:46.994Z,12.80
2019-04-16T17:29:16.448Z,13.10
2019-04-16T17:31:44.234Z,13.45
2019-04-16T17:34:12.124Z,13.90
2019-04-16T17:36:39.959Z,14.78
2019-04-16T17:39:10.492Z,12.85
2019-04-16T17:41:44.312Z,13.20
2019-04-16T17:44:31.951Z,12.28
2019-04-16T17:47:32.522Z,12.47
2019-04-16T17:50:03.990Z,13.68
2019-04-16T17:52:51.326Z,14.78
2019-04-16T17:55:43.599Z,15.63
2019-04-16T17:58:18.529Z,13.70
2019-04-16T18:01:22.595Z,15.80
2019-04-16T18:04:11.628Z,13.30
2019-04-16T18:07:03.790Z,14.23
2019-04-16T18:09:39.757Z,15.85
2019-04-16T18:12:19.808Z,16.05
2019-04-16T18:15:18.744Z,14.28
2019-04-16T18:18:01.117Z,14.83
2019-04-16T18:20:57.300Z,15.32
2019-04-16T18:23:27.847Z,15.70
2019-04-16T18:26:15.316Z,15.85
2019-04-16T18:29:04.263Z,15.05
2019-04-16T18:32:02.457Z,14.55
2019-04-16T18:34:40.225Z,16.45
2019-04-16T18:37:38.243Z,14.47
2019-04-16T18:40:45.176Z,14.87
2019-04-16T18:43:32.670Z,15.65
2019-04-16T18:46:19.932Z,15.48
2019-04-16T18:48:54.304Z,14.65
2019-04-16T18:51:23.990Z,16.00
2019-04-16T18:53:52.237Z,12.95
2019-04-16T18:56:20.107Z,14.20
2019-04-16T18:58:48.008Z,12.98
2019-04-16T19:01:24.826Z,11.55
2019-04-16T19:03:53.732Z,12.35
2019-04-16T19:06:22.594Z,12.75
2019-04-16T19:08:50.500Z,12.75
2019-04-16T19:11:20.329Z,13.60
2019-04-16T19:13:48.172Z,14.35
2019-04-16T19:16:16.005Z,15.75
2019-04-16T19:18:44.007Z,13.18
2019-04-16T19:21:11.938Z,14.23
2019-04-16T19:23:39.974Z,13.30
2019-04-16T19:26:07.801Z,14.03
2019-04-16T19:28:36.253Z,14.03
2019-04-16T19:31:05.379Z,13.32
2019-04-16T19:33:37.995Z,14.68
2019-04-16T19:36:03.210Z,13.50
2019-04-16T19:38:31.012Z,12.35
2019-04-16T19:40:58.998Z,13.45
2019-04-16T19:43:28.451Z,13.60
2019-04-16T19:45:56.803Z,14.00
2019-04-16T19:48:35.360Z,14.03
2019-04-16T19:50:54.447Z,13.62
2019-04-16T19:53:22.398Z,13.43
2019-04-16T19:55:50.278Z,13.50
2019-04-16T19:58:18.267Z,13.43
2019-04-16T20:00:46.134Z,13.60
2019-04-16T20:03:14.050Z,13.93
2019-04-16T20:05:42.405Z,14.53
2019-04-16T20:08:10.463Z,13.60
2019-04-16T20:10:38.357Z,14.95
2019-04-16T20:13:06.178Z,14.70
2019-04-16T20:15:33.983Z,14.05
2019-04-16T20:18:01.922Z,17.23
2019-04-16T20:20:29.887Z,14.55
2019-04-16T20:22:57.865Z,15.08
2019-04-16T20:25:25.651Z,15.63
2019-04-16T20:27:53.704Z,13.90
2019-04-16T20:30:24.284Z,13.90
2019-04-16T20:32:51.476Z,13.43
2019-04-16T20:35:19.250Z,15.32
2019-04-16T20:37:47.237Z,13.50
2019-04-16T20:40:17.738Z,14.83
2019-04-16T20:42:44.805Z,14.35
2019-04-16T20:45:12.644Z,13.60
2019-04-16T20:47:40.655Z,14.40
2019-04-16T20:50:08.602Z,13.72
2019-04-16T20:52:36.921Z,14.20
2019-04-16T20:55:04.673Z,12.50
2019-04-16T20:57:32.822Z,14.58
2019-04-16T21:00:00.683Z,12.63
2019-04-16T21:02:32.093Z,12.50
2019-04-16T21:05:03.036Z,14.90
2019-04-16T21:07:31.054Z,13.30
2019-04-16T21:10:02.510Z,13.32
2019-04-16T21:12:29.653Z,14.53
2019-04-16T21:14:57.450Z,13.00
2019-04-16T21:17:25.252Z,14.65
2019-04-16T21:19:53.108Z,14.28
2019-04-16T21:22:20.817Z,14.68
2019-04-16T21:24:48.604Z,13.72
2019-04-16T21:27:16.434Z,14.28
2019-04-16T21:29:44.726Z,14.68
2019-04-16T21:32:31.440Z,15.83
2019-04-16T21:35:07.428Z,13.88
2019-04-16T21:37:55.014Z,15.10
2019-04-16T21:40:24.386Z,13.78
2019-04-16T21:42:52.174Z,14.87
2019-04-16T21:45:20.041Z,15.75
2019-04-16T21:47:47.831Z,16.35
2019-04-16T21:50:16.430Z,15.35
2019-04-16T21:52:44.861Z,13.78
2019-04-16T21:55:12.639Z,17.40
2019-04-16T21:57:42.884Z,15.68
2019-04-16T22:00:30.679Z,15.32
2019-04-16T22:02:59.625Z,14.50
2019-04-16T22:05:28.628Z,15.30
2019-04-16T22:07:57.052Z,16.82
2019-04-16T22:10:26.085Z,15.18
2019-04-16T22:12:53.819Z,14.83
2019-04-16T22:15:25.148Z,15.98
2019-04-16T22:17:51.304Z,17.55
2019-04-16T22:20:19.212Z,16.27
2019-04-16T22:22:47.473Z,15.72
2019-04-16T22:25:15.505Z,14.55
2019-04-16T22:27:43.183Z,15.70
2019-04-16T22:30:11.080Z,14.80
2019-04-16T22:32:38.753Z,16.50
2019-04-16T22:35:06.733Z,16.23
2019-04-16T22:37:34.518Z,15.90
2019-04-16T22:40:16.074Z,17.20
2019-04-16T22:43:05.213Z,17.17
2019-04-16T22:45:46.149Z,16.27
2019-04-16T22:48:15.512Z,17.07
2019-04-16T22:50:43.173Z,17.15
2019-04-16T22:53:10.879Z,16.70
2019-04-16T22:55:42.364Z,17.95
2019-04-16T22:58:22.294Z,17.70
2019-04-16T23:00:52.205Z,18.82
2019-04-16T23:03:21.510Z,18.00
2019-04-16T23:05:49.289Z,18.60
2019-04-16T23:08:17.077Z,18.25
2019-04-16T23:10:44.941Z,18.23
2019-04-16T23:13:12.615Z,19.10
2019-04-16T23:15:41.349Z,18.73
2019-04-16T23:18:09.289Z,19.30
2019-04-16T23:20:38.714Z,18.62
2019-04-16T23:23:08.053Z,18.45
2019-04-16T23:25:35.725Z,16.93
2019-04-16T23:28:03.716Z,18.85
2019-04-16T23:30:31.587Z,16.50
2019-04-16T23:33:01.323Z,18.70
2019-04-16T23:35:28.977Z,16.02
2019-04-16T23:37:59.510Z,15.48
2019-04-16T23:40:26.331Z,16.05
2019-04-16T23:43:10.941Z,18.90
2019-04-16T23:46:12.033Z,17.35
2019-04-16T23:48:48.486Z,15.10
2019-04-16T23:51:28.749Z,18.55
2019-04-16T23:54:16.138Z,17.35
2019-04-16T23:56:53.236Z,18.73
2019-04-16T23:59:32.619Z,17.12
